»·PEaware :: N364CM KLAX-KSAN

N364CM :: KLAX-KSAN

FLIGHT INFORMATION

Flight Status: Arrived
Operator: Privately registered:
United States
More flights under this callsign
Pilot: Brian S. (32023)
Aircraft: CESSNA 172 SKYHAWK
(C172)
More flights by this aircraft type
Origin: KLAX Los Angeles Intl
United States
Destination: KSAN San Diego Intl-Lindbergh
United States
More flights between these airports :: More routes between these airports
Route: VPLDP VPSMP VPOCN VPSMS
File this flight plan on PilotEdge
Remarks:
Altitude:
(Current/Filed)
3,500ft
Speed:
(Current/Filed)
125kts
Departed: 21-Jan-21 05:42 PM
Arrived: 21-Jan-21 06:46 PM
Distance/Time
Traveled:
95nm/1:04
Distance/Time
To Go:
Arrived

Flight Plot

Page will automatically refresh every two minutes.

Flight plan parsing failed; only flown route is shown


Map Options




Map Legend


Flown Route
Filed Route
Departure Airport
Arrival Airport
Navaid (VOR, NDB)
Fix

Horizontal Profiles

Position Reports

Time Latitude Longitude Heading Altitude Ground
Speed
21-Jan-21 17:22 33.933633 -118.399302 174 117ft 0kts
21-Jan-21 17:23 33.933633 -118.399302 174 117ft 0kts
21-Jan-21 17:24 33.933633 -118.399302 174 117ft 0kts
21-Jan-21 17:25 33.933633 -118.399302 174 117ft 0kts
21-Jan-21 17:26 33.933633 -118.399302 174 117ft 0kts
21-Jan-21 17:27 33.933633 -118.399302 174 117ft 0kts
21-Jan-21 17:28 33.933633 -118.399302 174 117ft 0kts
21-Jan-21 17:29 33.933633 -118.399302 174 117ft 0kts
21-Jan-21 17:30 33.933633 -118.399302 174 117ft 0kts
21-Jan-21 17:31 33.933633 -118.399302 174 117ft 0kts
21-Jan-21 17:32 33.933633 -118.399302 174 117ft 0kts
21-Jan-21 17:33 33.933633 -118.399302 174 117ft 0kts
21-Jan-21 17:34 33.933633 -118.399302 174 117ft 0kts
21-Jan-21 17:35 33.933633 -118.399302 174 117ft 0kts
21-Jan-21 17:36 33.933779 -118.398379 48 116ft 12kts
21-Jan-21 17:37 33.934911 -118.394680 83 107ft 12kts
21-Jan-21 17:38 33.935377 -118.390132 83 104ft 14kts
21-Jan-21 17:39 33.935901 -118.384974 83 102ft 15kts
21-Jan-21 17:40 33.937282 -118.383160 280 100ft 15kts
21-Jan-21 17:41 33.935124 -118.402363 261 579ft 68kts
21-Jan-21 17:42 33.930392 -118.425168 225 977ft 70kts
21-Jan-21 17:43 33.911802 -118.429809 174 1345ft 74kts
21-Jan-21 17:44 33.891332 -118.427184 183 1682ft 79kts
21-Jan-21 17:45 33.870470 -118.429548 180 2082ft 72kts
21-Jan-21 17:46 33.850229 -118.429351 178 2533ft 73kts
21-Jan-21 17:47 33.829932 -118.428457 178 2973ft 73kts
21-Jan-21 17:48 33.809543 -118.429177 183 3390ft 74kts
21-Jan-21 17:49 33.784352 -118.434711 176 3440ft 105kts
21-Jan-21 17:50 33.754138 -118.428221 152 3399ft 115kts
21-Jan-21 17:51 33.734042 -118.400370 117 3423ft 113kts
21-Jan-21 17:52 33.719284 -118.366612 116 3417ft 113kts
21-Jan-21 17:54 33.706471 -118.331808 113 3417ft 113kts
21-Jan-21 17:55 33.695275 -118.296479 96 3419ft 113kts
21-Jan-21 17:56 33.692231 -118.258647 95 3417ft 113kts
21-Jan-21 17:57 33.689216 -118.220867 96 3417ft 113kts
21-Jan-21 17:58 33.673723 -118.188453 137 3418ft 113kts
21-Jan-21 17:59 33.650600 -118.162618 145 3417ft 113kts
21-Jan-21 18:00 33.624568 -118.141067 145 3417ft 113kts
21-Jan-21 18:01 33.598517 -118.119513 145 3417ft 113kts
21-Jan-21 18:02 33.572172 -118.097716 145 3417ft 116kts
21-Jan-21 18:03 33.545592 -118.075723 145 3417ft 116kts
21-Jan-21 18:04 33.518970 -118.053695 145 3417ft 116kts
21-Jan-21 18:05 33.492324 -118.031645 145 3417ft 116kts
21-Jan-21 18:06 33.477870 -118.000146 96 3417ft 116kts
21-Jan-21 18:07 33.474350 -117.961707 96 3417ft 116kts
21-Jan-21 18:08 33.470821 -117.923120 96 3417ft 116kts
21-Jan-21 18:08 33.467893 -117.891063 96 3417ft 116kts
21-Jan-21 18:09 33.464381 -117.852556 96 3417ft 116kts
21-Jan-21 18:11 33.460285 -117.807578 96 3417ft 116kts
21-Jan-21 18:12 33.456778 -117.769012 95 3417ft 116kts
21-Jan-21 18:12 33.453861 -117.736890 95 3417ft 116kts
21-Jan-21 18:13 33.442931 -117.700926 126 3420ft 116kts
21-Jan-21 18:15 33.415246 -117.670251 140 3419ft 116kts
21-Jan-21 18:15 33.393011 -117.652040 150 3410ft 117kts
21-Jan-21 18:16 33.366814 -117.629887 134 3408ft 117kts
21-Jan-21 18:17 33.349039 -117.598399 117 3424ft 116kts
21-Jan-21 18:18 33.331444 -117.565980 124 3424ft 116kts
21-Jan-21 18:19 33.310647 -117.536265 132 3410ft 117kts
21-Jan-21 18:20 33.286730 -117.510219 143 3408ft 116kts
21-Jan-21 18:21 33.260425 -117.487708 144 3408ft 116kts
21-Jan-21 18:22 33.233939 -117.465326 144 3408ft 116kts
21-Jan-21 18:23 33.207558 -117.443031 144 3408ft 116kts
21-Jan-21 18:24 33.180216 -117.422634 151 3408ft 116kts
21-Jan-21 18:25 33.151647 -117.404292 152 3408ft 116kts
21-Jan-21 18:26 33.121917 -117.388814 156 3408ft 116kts
21-Jan-21 18:27 33.092226 -117.373551 156 3408ft 116kts
21-Jan-21 18:28 33.062089 -117.359307 158 3408ft 116kts
21-Jan-21 18:29 33.031951 -117.345278 158 3408ft 116kts
21-Jan-21 18:30 33.001800 -117.331243 158 3408ft 116kts
21-Jan-21 18:31 32.971651 -117.317206 158 3408ft 116kts
21-Jan-21 18:32 32.941508 -117.303171 158 3408ft 116kts
21-Jan-21 18:33 32.911326 -117.289117 158 3408ft 116kts
21-Jan-21 18:34 32.881147 -117.275062 158 3408ft 116kts
21-Jan-21 18:35 32.851020 -117.261018 157 2823ft 109kts
21-Jan-21 18:36 32.824073 -117.249695 163 2129ft 99kts
21-Jan-21 18:37 32.799946 -117.241098 162 1678ft 85kts
21-Jan-21 18:38 32.778485 -117.230990 154 1284ft 77kts
21-Jan-21 18:39 32.761006 -117.218223 130 1047ft 71kts
21-Jan-21 18:40 32.756348 -117.194461 104 855ft 68kts
21-Jan-21 18:41 32.752493 -117.172693 107 1159ft 68kts
21-Jan-21 18:42 32.744056 -117.150422 137 1101ft 82kts
21-Jan-21 18:43 32.727913 -117.161014 266 512ft 92kts
21-Jan-21 18:44 32.733079 -117.188153 282 21ft 50kts
21-Jan-21 18:45 32.734204 -117.191801 95 21ft 23kts
21-Jan-21 18:46 32.734383 -117.188444 107 20ft 17kts
21-Jan-21 18:47 32.732921 -117.182317 105 20ft 19kts
21-Jan-21 18:48 32.733841 -117.179393 73 20ft 7kts
21-Jan-21 18:49 32.733553 -117.178480 127 20ft 0kts

Navigation Log

Ident Type
Flight plan parsing failed, navigation log unavailable